Time;durP1;ratioP1;P1;durP2;ratioP2;P2;SDS_P1;SDS_P2;PMS_P1;PMS_P2;Temp;Humidity;BMP_temperature;BMP_pressure;BME280_temperature;BME280_humidity;BME280_pressure;Samples;Min_cycle;Max_cycle;Signal;HPM_P1;HPM_P2
2022/02/21 00:00:35;;;;;;;7.70;7.07;;;10.00;99.90;;;;;;4966588;28;20225;-75
2022/02/21 00:03:02;;;;;;;8.20;7.50;;;10.10;99.90;;;;;;4964542;28;20217;-75
2022/02/21 00:05:29;;;;;;;7.50;6.80;;;10.10;99.90;;;;;;4985706;28;20244;-75
2022/02/21 00:07:57;;;;;;;8.23;7.00;;;10.10;99.90;;;;;;4970662;28;20202;-75
2022/02/21 00:10:24;;;;;;;7.33;6.53;;;10.20;99.90;;;;;;4969926;28;20255;-75
2022/02/21 00:12:52;;;;;;;7.57;6.97;;;10.20;99.90;;;;;;4969812;28;20287;-75
2022/02/21 00:15:21;;;;;;;7.67;6.97;;;10.20;99.90;;;;;;4969372;28;20737;-75
2022/02/21 00:17:47;;;;;;;7.30;6.60;;;10.20;99.90;;;;;;4987433;28;20204;-75
2022/02/21 00:20:14;;;;;;;7.27;6.60;;;10.30;99.90;;;;;;4986516;28;20267;-75
2022/02/21 00:22:41;;;;;;;7.43;6.70;;;10.30;99.90;;;;;;4970128;28;20670;-75
2022/02/21 00:25:10;;;;;;;7.80;7.10;;;10.30;99.90;;;;;;4987090;28;20586;-75
2022/02/21 00:27:37;;;;;;;7.33;2.27;;;10.30;99.90;;;;;;4969862;28;20205;-75
2022/02/21 00:30:06;;;;;;;8.73;6.90;;;10.30;99.90;;;;;;4967999;28;20600;-75
2022/02/21 00:32:33;;;;;;;7.70;7.00;;;10.30;99.90;;;;;;4987401;28;20193;-75
2022/02/21 00:35:00;;;;;;;7.27;6.63;;;10.30;99.90;;;;;;4986651;28;20693;-75
2022/02/21 00:37:27;;;;;;;7.83;6.90;;;10.30;99.90;;;;;;4969745;28;20232;-75
2022/02/21 00:39:55;;;;;;;7.10;6.60;;;10.30;99.90;;;;;;4987268;28;20224;-74
2022/02/21 00:42:24;;;;;;;7.17;6.50;;;10.30;99.90;;;;;;4987049;28;20201;-75
2022/02/21 00:44:55;;;;;;;7.50;6.90;;;10.30;99.90;;;;;;4987164;28;20193;-75
2022/02/21 00:47:24;;;;;;;5.40;4.10;;;10.30;99.90;;;;;;4985247;28;20998;-75
2022/02/21 00:49:51;;;;;;;3.43;2.07;;;10.30;99.90;;;;;;4987199;28;20228;-75
2022/02/21 00:52:18;;;;;;;4.03;2.50;;;10.30;99.90;;;;;;4968725;28;20255;-75
2022/02/21 00:54:45;;;;;;;8.17;7.40;;;10.30;99.90;;;;;;4987035;28;20213;-75
2022/02/21 00:57:12;;;;;;;9.60;7.50;;;10.30;99.90;;;;;;4986855;28;20225;-75
2022/02/21 00:59:40;;;;;;;5.40;2.57;;;10.30;99.90;;;;;;4986876;28;20217;-75
2022/02/21 01:02:08;;;;;;;2.97;2.10;;;10.30;99.90;;;;;;4986304;28;20547;-75
2022/02/21 01:04:35;;;;;;;5.43;4.87;;;10.30;99.90;;;;;;4979919;28;20207;-75
2022/02/21 01:07:02;;;;;;;6.57;4.93;;;10.30;99.90;;;;;;4973591;28;20207;-75
2022/02/21 01:09:29;;;;;;;6.07;4.57;;;10.30;99.90;;;;;;4978115;28;20225;-75
2022/02/21 01:11:57;;;;;;;7.90;3.87;;;10.30;99.90;;;;;;4983426;28;20228;-75
2022/02/21 01:14:24;;;;;;;5.30;2.40;;;10.20;99.90;;;;;;4972201;28;20266;-75
2022/02/21 01:16:52;;;;;;;8.00;7.20;;;10.20;99.90;;;;;;4982673;28;20197;-75
2022/02/21 01:19:19;;;;;;;7.80;7.20;;;10.20;99.90;;;;;;4972847;28;20260;-75
2022/02/21 01:21:46;;;;;;;7.40;6.33;;;10.20;99.90;;;;;;4983099;28;20206;-75
2022/02/21 01:24:13;;;;;;;7.80;7.03;;;10.10;99.90;;;;;;4973650;28;20689;-75
2022/02/21 01:26:40;;;;;;;8.10;7.30;;;10.10;99.90;;;;;;4982800;28;20222;-75
2022/02/21 01:29:07;;;;;;;6.00;5.53;;;10.10;99.90;;;;;;4983546;28;20639;-76
2022/02/21 01:31:33;;;;;;;8.27;4.77;;;10.10;99.90;;;;;;4988451;28;20221;-76
2022/02/21 01:34:02;;;;;;;8.50;7.67;;;10.00;99.90;;;;;;4983231;28;20257;-75
2022/02/21 01:36:29;;;;;;;8.00;7.27;;;10.10;99.90;;;;;;4976092;28;20217;-75
2022/02/21 01:38:56;;;;;;;5.37;5.07;;;10.00;99.90;;;;;;4982748;28;20699;-75
2022/02/21 01:41:22;;;;;;;7.70;6.97;;;10.10;99.90;;;;;;4991121;28;20202;-75
2022/02/21 01:43:49;;;;;;;9.37;8.67;;;10.10;99.90;;;;;;4968471;28;20257;-75
2022/02/21 01:46:16;;;;;;;6.20;5.60;;;10.10;99.90;;;;;;4984497;28;20202;-75
2022/02/21 01:48:43;;;;;;;8.40;7.20;;;10.00;99.90;;;;;;4986714;28;20649;-75
2022/02/21 01:51:12;;;;;;;8.43;7.73;;;10.00;99.90;;;;;;4983895;28;20253;-75
2022/02/21 01:53:38;;;;;;;9.07;6.63;;;10.00;99.90;;;;;;4988308;28;20565;-75
2022/02/21 01:56:06;;;;;;;7.37;6.73;;;10.00;99.90;;;;;;4965681;28;20699;-75
2022/02/21 01:58:33;;;;;;;7.93;7.13;;;10.00;99.90;;;;;;4972372;28;20217;-75
2022/02/21 02:01:00;;;;;;;3.17;2.10;;;10.00;99.90;;;;;;4982455;28;20686;-75
2022/02/21 02:03:26;;;;;;;4.33;2.53;;;10.00;99.90;;;;;;4968451;28;20201;-75
2022/02/21 02:05:54;;;;;;;5.70;2.80;;;10.00;99.90;;;;;;4962089;28;20249;-75
2022/02/21 02:08:22;;;;;;;3.80;3.30;;;9.90;99.90;;;;;;4979527;28;20225;-75
2022/02/21 02:10:49;;;;;;;5.80;3.50;;;9.90;99.90;;;;;;4981074;28;20202;-75
2022/02/21 02:13:16;;;;;;;7.60;7.10;;;9.90;99.90;;;;;;4982999;28;20202;-75
2022/02/21 02:15:43;;;;;;;8.70;8.00;;;9.90;99.90;;;;;;4982153;28;20198;-75
2022/02/21 02:18:09;;;;;;;7.63;6.93;;;9.90;99.90;;;;;;4982887;28;20222;-75
2022/02/21 02:20:36;;;;;;;7.37;6.97;;;9.90;99.90;;;;;;4966845;28;20684;-75
2022/02/21 02:23:06;;;;;;;6.07;5.03;;;9.90;99.90;;;;;;4967298;28;20205;-75
2022/02/21 02:25:33;;;;;;;7.37;6.87;;;9.90;99.90;;;;;;4979006;28;20200;-75
2022/02/21 02:28:00;;;;;;;6.73;6.33;;;9.90;99.90;;;;;;4966758;28;20304;-75
2022/02/21 02:30:27;;;;;;;6.90;6.50;;;9.90;99.90;;;;;;4981043;28;20196;-75
2022/02/21 02:32:54;;;;;;;7.00;6.50;;;10.00;99.90;;;;;;4963227;28;20269;-75
2022/02/21 02:35:21;;;;;;;6.80;6.37;;;10.00;99.90;;;;;;4983280;28;20218;-75
2022/02/21 02:37:48;;;;;;;6.83;6.33;;;10.00;99.90;;;;;;4964239;28;20193;-75
2022/02/21 02:40:16;;;;;;;7.13;6.50;;;10.00;99.90;;;;;;4982249;28;20572;-75
2022/02/21 02:42:43;;;;;;;7.20;6.70;;;10.00;99.90;;;;;;4981506;28;20186;-75
2022/02/21 02:45:10;;;;;;;6.73;6.33;;;10.00;99.90;;;;;;4985146;28;20193;-75
2022/02/21 02:47:37;;;;;;;6.97;6.37;;;9.90;99.90;;;;;;4962269;28;20201;-75
2022/02/21 02:50:06;;;;;;;6.67;6.20;;;10.00;99.90;;;;;;4959775;28;20222;-75
2022/02/21 02:52:33;;;;;;;6.90;6.30;;;9.90;99.90;;;;;;4967502;28;20661;-75
2022/02/21 02:55:00;;;;;;;7.60;7.10;;;9.90;99.90;;;;;;4980377;28;20249;-75
2022/02/21 02:57:28;;;;;;;6.80;6.30;;;9.90;99.90;;;;;;4983565;28;20205;-75
2022/02/21 02:59:54;;;;;;;7.33;6.83;;;10.00;99.90;;;;;;4986368;28;20709;-75
2022/02/21 03:02:21;;;;;;;6.93;6.53;;;9.90;99.90;;;;;;4982029;28;20675;-75
2022/02/21 03:04:48;;;;;;;6.67;6.17;;;9.90;99.90;;;;;;4986414;28;20256;-75
2022/02/21 03:07:15;;;;;;;6.80;6.30;;;9.90;99.90;;;;;;4982673;28;20247;-75
2022/02/21 03:09:42;;;;;;;6.73;6.33;;;9.90;99.90;;;;;;4961019;28;20233;-75
2022/02/21 03:12:10;;;;;;;8.10;7.30;;;9.90;99.90;;;;;;4981919;28;20198;-75
2022/02/21 03:14:38;;;;;;;7.20;6.70;;;9.90;99.90;;;;;;4980423;28;20190;-75
2022/02/21 03:17:05;;;;;;;6.80;6.20;;;9.80;99.90;;;;;;4963754;28;20210;-75
2022/02/21 03:19:32;;;;;;;6.80;6.30;;;9.80;99.90;;;;;;4983855;28;20224;-75
2022/02/21 03:22:01;;;;;;;6.30;5.90;;;9.80;99.90;;;;;;4981108;28;20197;-75
2022/02/21 03:24:28;;;;;;;6.10;5.70;;;9.70;99.90;;;;;;4984614;28;20284;-75
2022/02/21 03:26:55;;;;;;;7.03;6.50;;;9.70;99.90;;;;;;4968422;28;20198;-75
2022/02/21 03:29:21;;;;;;;6.77;6.17;;;9.60;99.90;;;;;;4983628;28;20570;-75
2022/02/21 03:31:49;;;;;;;6.30;6.00;;;9.60;99.90;;;;;;4964562;28;20248;-75
2022/02/21 03:34:16;;;;;;;6.73;6.30;;;9.60;99.90;;;;;;4983598;28;20615;-75
2022/02/21 03:36:43;;;;;;;6.93;6.43;;;9.60;99.90;;;;;;4963313;28;20221;-77
2022/02/21 03:39:10;;;;;;;6.93;6.33;;;9.60;99.90;;;;;;4982487;28;20276;-76
2022/02/21 03:41:37;;;;;;;6.60;6.20;;;9.70;99.90;;;;;;4979015;28;20204;-76
2022/02/21 03:44:04;;;;;;;6.77;6.37;;;9.70;99.90;;;;;;4976210;28;20204;-77
2022/02/21 03:46:31;;;;;;;7.57;6.90;;;9.80;99.90;;;;;;4954776;28;20198;-78
2022/02/21 03:49:00;;;;;;;7.10;6.50;;;9.70;99.90;;;;;;4965208;28;20218;-77
2022/02/21 03:51:26;;;;;;;6.80;6.20;;;9.70;99.90;;;;;;4976197;28;20767;-77
2022/02/21 03:53:53;;;;;;;6.80;6.40;;;9.60;99.90;;;;;;4976718;28;20260;-77
2022/02/21 03:56:20;;;;;;;6.63;6.33;;;9.50;99.90;;;;;;4988572;28;20641;-76
2022/02/21 03:58:48;;;;;;;7.10;6.70;;;9.50;99.90;;;;;;4978770;28;20272;-77
2022/02/21 04:01:15;;;;;;;7.70;7.20;;;9.40;99.90;;;;;;4966990;28;20212;-77
2022/02/21 04:03:42;;;;;;;8.43;7.83;;;9.40;99.90;;;;;;4972719;28;20202;-76
2022/02/21 04:06:10;;;;;;;11.13;10.27;;;9.40;99.90;;;;;;4966784;28;20756;-77
2022/02/21 04:08:37;;;;;;;10.60;9.90;;;8.30;99.90;;;;;;4953538;28;20225;-76
2022/02/21 04:11:03;;;;;;;5.93;5.50;;;7.00;99.90;;;;;;4976415;28;20569;-77
2022/02/21 04:13:30;;;;;;;2.00;1.90;;;6.40;99.90;;;;;;4988154;28;20251;-76
2022/02/21 04:15:58;;;;;;;2.33;1.90;;;6.00;99.90;;;;;;4980671;28;20707;-77
2022/02/21 04:18:25;;;;;;;3.40;3.10;;;5.90;99.90;;;;;;4983756;28;20834;-76
2022/02/21 04:20:52;;;;;;;6.90;6.47;;;5.70;99.90;;;;;;4961537;28;20218;-76
2022/02/21 04:23:20;;;;;;;9.07;8.57;;;5.60;99.90;;;;;;4966649;28;20297;-75
2022/02/21 04:25:47;;;;;;;9.20;8.70;;;5.50;99.90;;;;;;4968205;28;20194;-74
2022/02/21 04:28:17;;;;;;;8.90;8.40;;;5.50;99.90;;;;;;4981650;28;20642;-75
2022/02/21 04:30:44;;;;;;;8.90;8.30;;;5.30;99.90;;;;;;4980480;28;20181;-74
2022/02/21 04:33:11;;;;;;;9.13;8.30;;;5.10;99.90;;;;;;4980109;28;20604;-77
2022/02/21 04:35:38;;;;;;;8.73;8.27;;;5.00;99.90;;;;;;4980444;28;20205;-77
2022/02/21 04:38:05;;;;;;;8.50;8.10;;;4.90;99.90;;;;;;4962048;28;20620;-75
2022/02/21 04:40:33;;;;;;;8.47;8.07;;;4.70;99.90;;;;;;4990301;28;20276;-76
2022/02/21 04:43:00;;;;;;;9.00;8.40;;;4.60;99.90;;;;;;4969127;28;20690;-75
2022/02/21 04:45:26;;;;;;;9.23;8.70;;;4.50;99.90;;;;;;4983900;28;20240;-74
2022/02/21 04:47:53;;;;;;;8.60;8.10;;;4.40;99.90;;;;;;4983044;28;20677;-74
2022/02/21 04:50:20;;;;;;;9.87;9.20;;;4.30;99.90;;;;;;4981003;28;20209;-74
2022/02/21 04:52:47;;;;;;;9.70;9.00;;;4.40;99.90;;;;;;4966242;28;20289;-74
2022/02/21 04:55:15;;;;;;;9.90;9.30;;;4.30;99.90;;;;;;4974023;28;20741;-74
2022/02/21 04:57:43;;;;;;;9.67;9.07;;;4.30;99.90;;;;;;4981789;28;20226;-75
2022/02/21 05:00:13;;;;;;;8.87;8.37;;;4.20;99.90;;;;;;4961011;28;20218;-74
2022/02/21 05:02:40;;;;;;;8.60;8.00;;;4.10;99.90;;;;;;4989842;28;20197;-74
2022/02/21 05:05:10;;;;;;;9.00;8.50;;;4.20;99.90;;;;;;4968766;28;20264;-74
2022/02/21 05:07:37;;;;;;;9.10;8.60;;;4.20;99.90;;;;;;4983215;28;20194;-76
2022/02/21 05:10:20;;;;;;;10.07;9.23;;;4.10;99.90;;;;;;5000025;23;20321;-78
2022/02/21 05:12:56;;;;;;;9.73;9.03;;;4.20;99.90;;;;;;4981409;28;20201;-79
2022/02/21 05:15:23;;;;;;;9.57;8.97;;;4.20;99.90;;;;;;4993890;28;20200;-77
2022/02/21 05:17:49;;;;;;;9.33;8.73;;;4.10;99.90;;;;;;4978736;28;20221;-78
2022/02/21 05:20:16;;;;;;;9.30;8.70;;;4.20;99.90;;;;;;4978880;28;20577;-79
2022/02/21 05:22:43;;;;;;;9.60;8.90;;;4.10;99.90;;;;;;4990383;28;20194;-78
2022/02/21 05:25:10;;;;;;;8.90;8.40;;;4.10;99.90;;;;;;4971739;28;20452;-79
2022/02/21 05:27:43;;;;;;;8.90;8.40;;;4.10;99.90;;;;;;4991003;28;20198;-79
2022/02/21 05:30:14;;;;;;;9.27;8.77;;;4.00;99.90;;;;;;4972837;28;20614;-79
2022/02/21 05:32:41;;;;;;;9.47;8.77;;;4.00;99.90;;;;;;4991765;28;20619;-79
2022/02/21 05:35:09;;;;;;;9.27;8.53;;;4.00;99.90;;;;;;4978402;28;20205;-78
2022/02/21 05:37:36;;;;;;;9.20;8.60;;;4.00;99.90;;;;;;5002532;28;20209;-79
2022/02/21 05:40:03;;;;;;;9.30;8.70;;;4.00;99.90;;;;;;4976463;28;20225;-79
2022/02/21 05:42:30;;;;;;;9.73;9.00;;;4.00;99.90;;;;;;4994419;28;20220;-78
2022/02/21 05:44:58;;;;;;;9.60;8.90;;;4.10;99.90;;;;;;4988767;28;20260;-79
2022/02/21 05:47:26;;;;;;;8.97;8.37;;;4.10;99.90;;;;;;4995025;28;20189;-78
2022/02/21 05:49:53;;;;;;;9.80;8.93;;;4.20;99.90;;;;;;4977814;28;20217;-79
2022/02/21 05:52:20;;;;;;;9.40;8.50;;;4.20;99.90;;;;;;4978057;28;20518;-78
2022/02/21 05:54:47;;;;;;;9.20;8.60;;;4.20;99.90;;;;;;5002305;28;20208;-79
2022/02/21 05:57:14;;;;;;;9.83;8.87;;;4.20;99.90;;;;;;5002250;28;20236;-78
2022/02/21 05:59:46;;;;;;;9.83;9.10;;;4.30;99.90;;;;;;4994790;28;20221;-78
2022/02/21 06:02:16;;;;;;;9.20;8.60;;;4.30;99.90;;;;;;4994782;28;20261;-78
2022/02/21 06:04:44;;;;;;;9.50;8.80;;;4.30;99.90;;;;;;4993818;28;20634;-78
2022/02/21 06:07:14;;;;;;;10.57;9.20;;;4.30;99.90;;;;;;4991373;28;20201;-78
2022/02/21 06:09:41;;;;;;;9.43;8.73;;;4.30;99.90;;;;;;4986084;28;20631;-78
2022/02/21 06:12:10;;;;;;;9.83;9.03;;;4.30;99.90;;;;;;4988557;28;20596;-78
2022/02/21 06:14:37;;;;;;;9.27;8.67;;;4.30;99.90;;;;;;4976251;28;20207;-79
2022/02/21 06:17:05;;;;;;;9.70;8.90;;;4.30;99.90;;;;;;4975804;28;20225;-78
2022/02/21 06:19:32;;;;;;;9.60;8.77;;;4.40;99.90;;;;;;4976584;28;20221;-79
2022/02/21 06:22:02;;;;;;;10.43;9.50;;;4.40;99.90;;;;;;4989405;28;20305;-79
2022/02/21 06:24:29;;;;;;;10.00;9.20;;;4.40;99.90;;;;;;4985836;28;20253;-78
2022/02/21 06:26:56;;;;;;;9.80;9.10;;;4.40;99.90;;;;;;5004152;28;20197;-78
2022/02/21 06:29:23;;;;;;;10.33;9.60;;;4.40;99.90;;;;;;4993681;28;20229;-79
2022/02/21 06:31:49;;;;;;;9.63;8.93;;;4.40;99.90;;;;;;4998062;28;20403;-78
2022/02/21 06:34:16;;;;;;;9.00;8.40;;;4.40;99.90;;;;;;5000457;28;20206;-78
2022/02/21 06:36:43;;;;;;;9.60;9.00;;;4.40;99.90;;;;;;4991977;28;20213;-78
2022/02/21 06:39:11;;;;;;;9.57;8.77;;;4.40;99.90;;;;;;5005935;28;20221;-78
2022/02/21 06:41:38;;;;;;;9.47;8.77;;;4.50;99.90;;;;;;4992685;28;20248;-77
2022/02/21 06:44:06;;;;;;;9.40;8.63;;;4.40;99.90;;;;;;4969361;28;20201;-78
2022/02/21 06:46:32;;;;;;;11.93;8.83;;;4.40;99.90;;;;;;5001925;28;20189;-77
2022/02/21 06:48:59;;;;;;;8.80;8.13;;;4.40;99.90;;;;;;4991000;28;20220;-77
2022/02/21 06:51:26;;;;;;;9.00;8.17;;;4.40;99.90;;;;;;4989438;28;20201;-78
2022/02/21 06:53:53;;;;;;;8.90;8.30;;;4.40;99.90;;;;;;4987029;28;20213;-77
2022/02/21 06:56:21;;;;;;;9.47;8.77;;;4.40;99.90;;;;;;4985561;28;20201;-76
2022/02/21 06:58:48;;;;;;;9.00;8.30;;;4.50;99.90;;;;;;4984551;28;20292;-79
2022/02/21 07:01:15;;;;;;;9.60;8.73;;;4.50;99.90;;;;;;4991740;28;20685;-77
2022/02/21 07:03:41;;;;;;;9.80;8.90;;;4.60;99.90;;;;;;5007626;28;20211;-77
2022/02/21 07:06:09;;;;;;;9.37;8.40;;;4.60;99.90;;;;;;4977832;28;20618;-78
2022/02/21 07:08:36;;;;;;;10.13;9.23;;;4.70;99.90;;;;;;4988763;28;20307;-77
2022/02/21 07:11:03;;;;;;;9.00;8.40;;;4.70;99.90;;;;;;4984901;28;20201;-77
2022/02/21 07:13:31;;;;;;;9.20;8.50;;;4.70;99.90;;;;;;4977003;28;20248;-77
2022/02/21 07:15:58;;;;;;;9.30;8.50;;;4.70;99.90;;;;;;4995714;28;20204;-77
2022/02/21 07:18:25;;;;;;;9.90;8.93;;;4.70;99.90;;;;;;4993007;28;20217;-78
2022/02/21 07:20:52;;;;;;;9.37;8.50;;;4.70;99.90;;;;;;4994700;28;20209;-77
2022/02/21 07:23:19;;;;;;;12.07;8.57;;;4.70;99.90;;;;;;4999589;28;20582;-78
2022/02/21 07:25:45;;;;;;;11.83;8.77;;;4.60;99.90;;;;;;4977125;28;20205;-77
2022/02/21 07:28:15;;;;;;;9.37;8.33;;;4.60;99.90;;;;;;4999376;28;20208;-77
2022/02/21 07:30:44;;;;;;;14.67;8.67;;;4.60;99.90;;;;;;4993307;28;20288;-78
2022/02/21 07:33:11;;;;;;;9.23;8.40;;;4.70;99.90;;;;;;5005116;28;20205;-77
2022/02/21 07:35:38;;;;;;;13.07;9.27;;;4.90;99.90;;;;;;4975592;28;20227;-77
2022/02/21 07:38:05;;;;;;;10.47;8.47;;;4.90;99.90;;;;;;4994287;28;20221;-77
2022/02/21 07:40:32;;;;;;;10.63;9.30;;;5.00;99.90;;;;;;4973060;28;20304;-78
2022/02/21 07:42:59;;;;;;;12.03;8.93;;;5.00;99.90;;;;;;4995340;28;20201;-78
2022/02/21 07:45:27;;;;;;;9.90;8.90;;;4.90;99.90;;;;;;4979806;28;20243;-77
2022/02/21 07:47:57;;;;;;;9.67;8.63;;;4.90;99.90;;;;;;5002032;28;20201;-77
2022/02/21 07:50:24;;;;;;;12.07;8.80;;;4.90;99.90;;;;;;5004892;28;20725;-79
2022/02/21 07:52:52;;;;;;;14.43;9.17;;;5.00;99.90;;;;;;5004237;28;20665;-78
2022/02/21 07:55:19;;;;;;;12.27;8.97;;;5.50;99.90;;;;;;4989758;28;20679;-75
2022/02/21 07:57:47;;;;;;;14.53;9.50;;;5.90;99.90;;;;;;4974827;28;20874;-79
2022/02/21 08:00:17;;;;;;;10.17;8.47;;;6.20;99.90;;;;;;4988771;28;20224;-81
2022/02/21 08:02:44;;;;;;;12.40;9.07;;;6.20;99.90;;;;;;4986283;28;20202;-80
2022/02/21 08:05:12;;;;;;;12.77;9.17;;;6.10;99.90;;;;;;4984890;28;20204;-81
2022/02/21 08:07:40;;;;;;;12.03;7.00;;;6.30;99.90;;;;;;4990897;28;20193;-81
2022/02/21 08:10:08;;;;;;;11.63;7.20;;;6.80;99.90;;;;;;4983804;28;20227;-80
2022/02/21 08:12:35;;;;;;;9.57;7.53;;;7.20;99.90;;;;;;5010553;28;20214;-80
2022/02/21 08:15:02;;;;;;;9.53;8.03;;;7.70;99.90;;;;;;4979697;28;20221;-80
2022/02/21 08:17:29;;;;;;;11.50;6.37;;;8.00;99.90;;;;;;4969435;28;20219;-80
2022/02/21 08:19:56;;;;;;;8.37;5.30;;;8.20;99.90;;;;;;4975219;28;20717;-79
2022/02/21 08:22:26;;;;;;;8.60;7.80;;;8.10;99.90;;;;;;4994142;28;20714;-79
2022/02/21 08:24:53;;;;;;;9.57;8.77;;;8.00;99.90;;;;;;4980279;28;20255;-79
2022/02/21 08:27:20;;;;;;;9.67;8.67;;;7.70;99.90;;;;;;5001148;28;20201;-79
2022/02/21 08:29:47;;;;;;;10.57;8.60;;;7.30;99.90;;;;;;4993440;28;20226;-79
2022/02/21 08:32:14;;;;;;;10.23;8.83;;;7.10;99.90;;;;;;4996941;28;20208;-79
2022/02/21 08:34:41;;;;;;;13.80;8.90;;;6.80;99.90;;;;;;5009723;28;20203;-79
2022/02/21 08:37:08;;;;;;;8.10;7.30;;;6.60;99.90;;;;;;5005935;28;20257;-79
2022/02/21 08:39:36;;;;;;;13.10;7.97;;;6.50;99.90;;;;;;4992709;28;20217;-79
2022/02/21 08:42:05;;;;;;;10.93;8.20;;;6.40;99.90;;;;;;4983695;28;20739;-80
2022/02/21 08:44:32;;;;;;;13.00;8.23;;;6.50;99.90;;;;;;4987381;28;20202;-80
2022/02/21 08:46:59;;;;;;;8.37;7.20;;;6.60;99.90;;;;;;4993788;28;20207;-79
2022/02/21 08:49:26;;;;;;;12.57;7.70;;;6.50;99.90;;;;;;4984394;28;20268;-79
2022/02/21 08:51:53;;;;;;;7.63;6.63;;;6.50;99.90;;;;;;4988174;28;20190;-79
2022/02/21 08:54:21;;;;;;;7.10;6.40;;;6.50;99.90;;;;;;4984475;28;20206;-79
2022/02/21 08:56:50;;;;;;;9.37;6.50;;;6.60;99.90;;;;;;4992375;28;20214;-80
2022/02/21 08:59:18;;;;;;;10.97;7.13;;;6.70;99.90;;;;;;4998577;28;20227;-77
2022/02/21 09:01:45;;;;;;;8.13;7.30;;;6.80;99.90;;;;;;5002229;28;20229;-78
2022/02/21 09:04:13;;;;;;;5.67;3.23;;;6.90;99.90;;;;;;4984931;28;20253;-78
2022/02/21 09:06:40;;;;;;;8.50;7.70;;;7.00;99.90;;;;;;4976120;28;20203;-78
2022/02/21 09:09:07;;;;;;;11.10;3.90;;;7.10;99.90;;;;;;5011751;28;20610;-79
2022/02/21 09:11:34;;;;;;;9.80;6.60;;;7.10;99.90;;;;;;5008988;28;20253;-78
2022/02/21 09:14:07;;;;;;;12.13;7.77;;;7.10;99.90;;;;;;4996023;28;20207;-79
2022/02/21 09:16:34;;;;;;;9.80;7.50;;;7.00;99.90;;;;;;5011363;28;20231;-78
2022/02/21 09:19:00;;;;;;;9.17;7.27;;;7.10;99.90;;;;;;5002164;28;20227;-79
2022/02/21 09:21:27;;;;;;;11.27;7.80;;;7.20;99.90;;;;;;4987407;28;20230;-79
2022/02/21 09:23:57;;;;;;;12.20;3.33;;;7.30;99.90;;;;;;5008364;28;20207;-78
2022/02/21 09:26:24;;;;;;;16.17;8.90;;;7.20;99.90;;;;;;5004147;28;20716;-79
2022/02/21 09:28:51;;;;;;;13.03;8.83;;;7.10;99.90;;;;;;4992211;28;20228;-80
2022/02/21 09:31:19;;;;;;;10.80;8.87;;;7.00;99.90;;;;;;5010167;28;20203;-79
2022/02/21 09:33:46;;;;;;;10.10;8.20;;;7.00;99.90;;;;;;5013334;28;20197;-78
2022/02/21 09:36:13;;;;;;;9.60;8.70;;;7.20;99.90;;;;;;4992318;28;20221;-77
2022/02/21 09:38:39;;;;;;;12.63;8.70;;;7.50;99.90;;;;;;5006098;28;20231;-78
2022/02/21 09:41:06;;;;;;;13.33;8.30;;;7.80;99.90;;;;;;5012390;28;20207;-78
2022/02/21 09:43:33;;;;;;;9.33;8.20;;;7.80;99.90;;;;;;4985169;28;20204;-79
2022/02/21 09:46:02;;;;;;;10.80;8.50;;;7.70;99.90;;;;;;4981567;28;20199;-79
2022/02/21 09:48:32;;;;;;;9.50;7.90;;;7.80;99.90;;;;;;4988734;28;20206;-79
2022/02/21 09:51:00;;;;;;;7.90;3.80;;;7.90;99.90;;;;;;4974124;28;20205;-79
2022/02/21 09:53:28;;;;;;;8.60;3.33;;;7.90;99.90;;;;;;5013347;28;20224;-78
2022/02/21 09:55:55;;;;;;;13.03;3.73;;;7.90;99.90;;;;;;4999288;28;20208;-78
2022/02/21 09:58:23;;;;;;;8.43;4.83;;;8.00;99.90;;;;;;4998723;28;21296;-78
2022/02/21 10:00:50;;;;;;;9.87;4.90;;;8.00;99.90;;;;;;4974712;28;20202;-77
2022/02/21 10:03:43;;;;;;;12.73;5.43;;;7.80;99.90;;;;;;4974958;28;20209;-77
2022/02/21 10:06:18;;;;;;;12.23;8.40;;;7.50;99.90;;;;;;4999768;28;20216;-78
2022/02/21 10:08:57;;;;;;;15.87;7.87;;;7.40;99.90;;;;;;4985715;28;20217;-79
2022/02/21 10:11:28;;;;;;;14.50;8.40;;;7.30;99.90;;;;;;4986613;28;20195;-78
2022/02/21 10:13:57;;;;;;;10.70;8.67;;;7.20;99.90;;;;;;4981327;28;20197;-77
2022/02/21 10:16:24;;;;;;;8.10;7.33;;;7.20;99.90;;;;;;4990754;28;20199;-77
2022/02/21 10:19:09;;;;;;;8.90;7.70;;;7.20;99.90;;;;;;4994684;28;20230;-78
2022/02/21 10:22:01;;;;;;;12.37;8.40;;;7.40;99.90;;;;;;4975561;28;20682;-77
2022/02/21 10:24:30;;;;;;;9.47;7.80;;;7.50;99.90;;;;;;4983644;28;20225;-77
2022/02/21 10:26:58;;;;;;;12.37;7.70;;;7.70;99.90;;;;;;4993783;28;20207;-77
2022/02/21 10:29:26;;;;;;;9.77;7.47;;;7.80;99.90;;;;;;4976121;28;20221;-77
2022/02/21 10:32:06;;;;;;;12.07;8.27;;;8.00;99.90;;;;;;5000812;28;20224;-77
2022/02/21 10:34:35;;;;;;;7.97;7.13;;;8.00;99.90;;;;;;4989731;28;20201;-77
2022/02/21 10:37:06;;;;;;;13.53;7.50;;;7.90;99.90;;;;;;4996229;28;20276;-77
2022/02/21 10:39:33;;;;;;;8.10;7.30;;;7.80;99.90;;;;;;4995101;28;20225;-77
2022/02/21 10:42:02;;;;;;;11.03;7.73;;;7.70;99.90;;;;;;4980214;28;20670;-79
2022/02/21 10:44:32;;;;;;;10.87;7.00;;;7.70;99.90;;;;;;4991146;28;20232;-80
2022/02/21 10:47:11;;;;;;;10.43;6.93;;;7.80;99.90;;;;;;4989035;28;20281;-80
2022/02/21 10:49:44;;;;;;;9.13;7.20;;;8.00;99.90;;;;;;4976148;28;20215;-80
2022/02/21 10:52:15;;;;;;;10.17;7.40;;;8.00;99.90;;;;;;5004895;28;20203;-81
2022/02/21 10:54:43;;;;;;;11.00;7.20;;;8.00;99.90;;;;;;4982218;28;20214;-81
2022/02/21 10:57:12;;;;;;;8.13;7.17;;;8.10;99.90;;;;;;4968514;28;20208;-79
2022/02/21 10:59:39;;;;;;;9.43;7.37;;;8.10;99.90;;;;;;4995698;28;20217;-79
2022/02/21 11:02:07;;;;;;;11.00;7.67;;;8.00;99.90;;;;;;4986291;28;20662;-79
2022/02/21 11:04:37;;;;;;;9.60;7.33;;;7.90;99.90;;;;;;4975547;28;20291;-80
2022/02/21 11:07:06;;;;;;;8.53;7.00;;;8.00;99.90;;;;;;4992659;28;20202;-79
2022/02/21 11:09:34;;;;;;;7.90;7.20;;;8.00;99.90;;;;;;5018046;23;20765;-75
2022/02/21 11:12:04;;;;;;;8.57;7.40;;;8.00;99.90;;;;;;4985734;28;20203;-75
2022/02/21 11:14:32;;;;;;;9.67;7.17;;;8.00;99.90;;;;;;5015688;28;20206;-74
2022/02/21 11:17:01;;;;;;;7.80;7.17;;;8.00;99.90;;;;;;5021269;28;20198;-74
2022/02/21 11:19:28;;;;;;;8.57;7.77;;;7.90;99.90;;;;;;5003679;28;20219;-75
2022/02/21 11:21:55;;;;;;;7.77;7.07;;;7.70;99.90;;;;;;5011810;28;20671;-75
2022/02/21 11:24:26;;;;;;;8.27;7.50;;;7.60;99.90;;;;;;5024353;28;20208;-75
2022/02/21 11:27:08;;;;;;;9.27;8.00;;;7.60;99.90;;;;;;5013964;28;20199;-74
2022/02/21 11:29:41;;;;;;;8.77;7.83;;;7.70;99.90;;;;;;5014086;28;20223;-75
2022/02/21 11:32:15;;;;;;;11.27;7.67;;;7.80;99.90;;;;;;5017700;28;20787;-75
2022/02/21 11:34:46;;;;;;;14.50;7.30;;;7.80;99.90;;;;;;5019789;28;20206;-75
2022/02/21 11:37:25;;;;;;;9.53;7.43;;;7.90;99.90;;;;;;4998552;28;20302;-75
2022/02/21 11:40:00;;;;;;;12.53;8.00;;;8.00;99.90;;;;;;5018491;28;20711;-75
2022/02/21 11:42:28;;;;;;;9.97;7.83;;;8.00;99.90;;;;;;5005799;28;20202;-75
2022/02/21 11:44:58;;;;;;;10.07;8.23;;;8.10;99.90;;;;;;4988966;28;20214;-75
2022/02/21 11:47:37;;;;;;;10.30;8.00;;;8.20;99.90;;;;;;5014283;28;20237;-75
2022/02/21 11:50:08;;;;;;;9.37;7.27;;;8.30;99.90;;;;;;5024534;28;20219;-74
2022/02/21 11:52:36;;;;;;;10.03;6.50;;;8.60;99.90;;;;;;4987057;28;20211;-74
2022/02/21 11:55:43;;;;;;;9.20;7.20;;;8.70;99.90;;;;;;4997878;28;20193;-74
2022/02/21 11:58:39;;;;;;;9.33;7.03;;;8.80;99.90;;;;;;5008905;28;20203;-74
2022/02/21 12:01:28;;;;;;;11.73;7.67;;;9.00;99.90;;;;;;5012728;28;20543;-74
2022/02/21 12:04:15;;;;;;;5.60;2.60;;;9.20;99.90;;;;;;5011062;28;20211;-75
2022/02/21 12:07:00;;;;;;;3.80;2.30;;;9.10;99.90;;;;;;5013528;28;20192;-75
2022/02/21 12:09:28;;;;;;;9.33;2.90;;;9.00;99.90;;;;;;5003420;28;20221;-76
2022/02/21 12:12:26;;;;;;;7.13;3.10;;;9.10;99.90;;;;;;5013334;28;20680;-76
2022/02/21 12:15:12;;;;;;;8.43;5.93;;;9.20;99.90;;;;;;5007217;28;20211;-76
2022/02/21 12:17:40;;;;;;;6.97;5.27;;;9.40;99.90;;;;;;4990270;28;20200;-76
2022/02/21 12:20:38;;;;;;;10.17;5.77;;;9.60;99.90;;;;;;5014245;28;20221;-75
2022/02/21 12:23:10;;;;;;;3.33;3.00;;;9.50;99.90;;;;;;5010406;28;20210;-75
2022/02/21 12:25:39;;;;;;;8.20;7.60;;;9.60;99.90;;;;;;5013945;28;20255;-75
2022/02/21 12:28:21;;;;;;;9.77;6.90;;;9.60;99.90;;;;;;5015845;28;20201;-76
2022/02/21 12:30:50;;;;;;;8.10;7.40;;;9.60;99.90;;;;;;5014931;28;20240;-76
2022/02/21 12:33:24;;;;;;;9.67;7.73;;;9.50;99.90;;;;;;4992934;28;20192;-76
2022/02/21 12:35:54;;;;;;;6.83;6.20;;;9.50;99.90;;;;;;4988906;28;20589;-76
2022/02/21 12:38:22;;;;;;;8.17;7.37;;;9.30;99.90;;;;;;5006735;28;20263;-76
2022/02/21 12:41:02;;;;;;;7.73;6.97;;;9.30;99.90;;;;;;5014516;28;20298;-75
2022/02/21 12:43:50;;;;;;;8.57;7.67;;;9.30;99.90;;;;;;5005619;28;20623;-75
2022/02/21 12:46:18;;;;;;;7.27;6.67;;;9.20;99.90;;;;;;5012820;28;20247;-76
2022/02/21 12:48:46;;;;;;;9.63;7.00;;;9.00;99.90;;;;;;5024054;28;20192;-75
2022/02/21 12:51:23;;;;;;;6.00;4.50;;;8.70;99.90;;;;;;5017019;28;20192;-76
2022/02/21 12:53:53;;;;;;;5.70;4.57;;;8.60;99.90;;;;;;5023294;28;20271;-75
2022/02/21 12:56:20;;;;;;;6.37;2.27;;;8.50;99.90;;;;;;5020965;28;20200;-76
2022/02/21 12:58:51;;;;;;;5.87;2.73;;;8.30;99.90;;;;;;5015190;28;20295;-76
2022/02/21 13:01:19;;;;;;;10.07;6.17;;;8.30;99.90;;;;;;5025069;28;20199;-76